createdAt,value
2019-01-24T00:00:32.767Z,969.47
2019-01-24T00:01:32.704Z,969.48
2019-01-24T00:02:32.641Z,969.48
2019-01-24T00:03:32.580Z,969.46
2019-01-24T00:04:32.513Z,969.49
2019-01-24T00:05:32.449Z,969.46
2019-01-24T00:06:32.384Z,969.54
2019-01-24T00:07:32.320Z,969.50
2019-01-24T00:08:32.257Z,969.57
2019-01-24T00:09:32.199Z,969.57
2019-01-24T00:10:32.129Z,969.64
2019-01-24T00:11:32.063Z,969.61
2019-01-24T00:12:32.002Z,969.63
2019-01-24T00:13:31.939Z,969.70
2019-01-24T00:14:31.874Z,969.66
2019-01-24T00:15:31.810Z,969.73
2019-01-24T00:16:31.748Z,969.70
2019-01-24T00:17:31.682Z,969.70
2019-01-24T00:18:31.625Z,969.76
2019-01-24T00:19:31.554Z,969.72
2019-01-24T00:20:31.490Z,969.71
2019-01-24T00:21:31.466Z,969.77
2019-01-24T00:22:31.363Z,969.74
2019-01-24T00:23:31.300Z,969.77
2019-01-24T00:24:31.234Z,969.75
2019-01-24T00:25:31.171Z,969.77
2019-01-24T00:26:31.107Z,969.71
2019-01-24T00:27:31.043Z,969.72
2019-01-24T00:28:30.980Z,969.74
2019-01-24T00:29:30.918Z,969.69
2019-01-24T00:30:30.853Z,969.73
2019-01-24T00:31:30.787Z,969.75
2019-01-24T00:32:30.726Z,969.73
2019-01-24T00:33:30.661Z,969.76
2019-01-24T00:34:30.597Z,969.75
2019-01-24T00:35:30.537Z,969.79
2019-01-24T00:36:30.468Z,969.81
2019-01-24T00:37:30.405Z,969.82
2019-01-24T00:38:30.343Z,969.82
2019-01-24T00:39:30.276Z,969.83
2019-01-24T00:40:30.213Z,969.87
2019-01-24T00:41:30.150Z,969.85
2019-01-24T00:42:30.088Z,969.86
2019-01-24T00:43:30.024Z,969.89
2019-01-24T00:44:29.957Z,969.88
2019-01-24T00:45:29.893Z,969.91
2019-01-24T00:46:29.831Z,969.99
2019-01-24T00:47:29.765Z,969.96
2019-01-24T00:48:29.702Z,969.95
2019-01-24T00:49:29.637Z,970.03
2019-01-24T00:50:29.575Z,970.01
2019-01-24T00:51:29.510Z,970.04
2019-01-24T00:52:29.446Z,970.04
2019-01-24T00:53:29.383Z,970.04
2019-01-24T00:54:29.322Z,970.09
2019-01-24T00:55:29.257Z,970.10
2019-01-24T00:56:29.191Z,970.15
2019-01-24T00:57:29.128Z,970.19
2019-01-24T00:58:29.063Z,970.16
2019-01-24T00:59:28.999Z,970.16
2019-01-24T01:00:28.935Z,970.16
2019-01-24T01:01:28.872Z,970.16
2019-01-24T01:02:28.807Z,970.17
2019-01-24T01:03:28.742Z,970.19
2019-01-24T01:04:29.811Z,970.19
2019-01-24T01:05:28.616Z,970.18
2019-01-24T01:06:28.551Z,970.20
2019-01-24T01:07:28.489Z,970.19
2019-01-24T01:08:28.426Z,970.21
2019-01-24T01:09:28.361Z,970.23
2019-01-24T01:10:28.296Z,970.21
2019-01-24T01:11:28.231Z,970.22
2019-01-24T01:12:28.168Z,970.21
2019-01-24T01:13:28.106Z,970.19
2019-01-24T01:14:28.040Z,970.23
2019-01-24T01:15:28.069Z,970.26
2019-01-24T01:16:27.912Z,970.27
2019-01-24T01:17:27.849Z,970.26
2019-01-24T01:18:27.786Z,970.25
2019-01-24T01:19:27.721Z,970.25
2019-01-24T01:20:27.658Z,970.31
2019-01-24T01:21:27.594Z,970.31
2019-01-24T01:22:27.529Z,970.29
2019-01-24T01:23:27.464Z,970.31
2019-01-24T01:24:27.401Z,970.34
2019-01-24T01:25:27.339Z,970.32
2019-01-24T01:26:27.274Z,970.36
2019-01-24T01:27:27.210Z,970.36
2019-01-24T01:28:27.145Z,970.37
2019-01-24T01:29:27.082Z,970.37
2019-01-24T01:30:27.018Z,970.32
2019-01-24T01:31:26.953Z,970.42
2019-01-24T01:32:26.892Z,970.43
2019-01-24T01:33:26.828Z,970.43
2019-01-24T01:34:26.764Z,970.48
2019-01-24T01:35:26.699Z,970.48
2019-01-24T01:36:26.633Z,970.51
2019-01-24T01:37:26.570Z,970.51
2019-01-24T01:38:26.510Z,970.54
2019-01-24T01:39:26.442Z,970.54
2019-01-24T01:40:26.379Z,970.55
2019-01-24T01:41:26.315Z,970.52
2019-01-24T01:42:26.251Z,970.57
2019-01-24T01:43:26.188Z,970.51
2019-01-24T01:44:26.122Z,970.56
2019-01-24T01:45:26.060Z,970.58
2019-01-24T01:46:25.997Z,970.63
2019-01-24T01:47:25.930Z,970.62
2019-01-24T01:48:25.866Z,970.62
2019-01-24T01:49:25.807Z,970.63
2019-01-24T01:50:25.739Z,970.60
2019-01-24T01:51:25.676Z,970.61
2019-01-24T01:52:25.612Z,970.60
2019-01-24T01:53:25.547Z,970.59
2019-01-24T01:54:25.485Z,970.59
2019-01-24T01:55:25.419Z,970.58
2019-01-24T01:56:25.356Z,970.61
2019-01-24T01:57:25.292Z,970.60
2019-01-24T01:58:25.228Z,970.63
2019-01-24T01:59:25.165Z,970.63
2019-01-24T02:00:25.099Z,970.64
2019-01-24T02:01:25.035Z,970.68
2019-01-24T02:02:24.974Z,970.67
2019-01-24T02:03:24.908Z,970.69
2019-01-24T02:04:24.845Z,970.72
2019-01-24T02:05:24.839Z,970.69
2019-01-24T02:06:24.716Z,970.72
2019-01-24T02:07:24.653Z,970.71
2019-01-24T02:08:24.587Z,970.75
2019-01-24T02:09:24.524Z,970.77
2019-01-24T02:10:24.462Z,970.73
2019-01-24T02:11:24.396Z,970.78
2019-01-24T02:12:24.333Z,970.78
2019-01-24T02:13:24.268Z,970.79
2019-01-24T02:14:24.205Z,970.77
2019-01-24T02:15:24.144Z,970.79
2019-01-24T02:16:24.076Z,970.81
2019-01-24T02:17:24.012Z,970.76
2019-01-24T02:18:23.949Z,970.82
2019-01-24T02:19:23.884Z,970.82
2019-01-24T02:20:23.820Z,970.85
2019-01-24T02:21:23.756Z,970.82
2019-01-24T02:22:23.696Z,970.85
2019-01-24T02:23:23.629Z,970.89
2019-01-24T02:24:23.565Z,970.88
2019-01-24T02:25:23.504Z,970.92
2019-01-24T02:26:23.437Z,970.90
2019-01-24T02:27:23.375Z,970.95
2019-01-24T02:28:23.310Z,970.92
2019-01-24T02:29:23.245Z,970.91
2019-01-24T02:30:23.183Z,970.92
2019-01-24T02:31:23.117Z,970.99
2019-01-24T02:32:23.053Z,970.99
2019-01-24T02:33:22.991Z,971.01
2019-01-24T02:34:22.928Z,970.98
2019-01-24T02:35:22.901Z,971.03
2019-01-24T02:36:22.798Z,970.98
2019-01-24T02:37:22.738Z,971.02
2019-01-24T02:38:22.672Z,971.07
2019-01-24T02:39:22.611Z,971.08
2019-01-24T02:40:22.541Z,971.05
2019-01-24T02:41:22.479Z,971.03
2019-01-24T02:42:22.774Z,971.04
2019-01-24T02:43:22.350Z,971.14
2019-01-24T02:44:22.285Z,971.05
2019-01-24T02:45:22.221Z,971.13
2019-01-24T02:46:22.160Z,971.09
2019-01-24T02:47:22.118Z,971.08
2019-01-24T02:48:22.029Z,971.12
2019-01-24T02:49:21.966Z,971.11
2019-01-24T02:50:21.903Z,971.14
2019-01-24T02:51:21.839Z,971.15
2019-01-24T02:52:21.773Z,971.19
2019-01-24T02:53:21.713Z,971.22
2019-01-24T02:54:21.647Z,971.18
2019-01-24T02:55:21.581Z,971.23
2019-01-24T02:56:21.521Z,971.24
2019-01-24T02:57:21.459Z,971.23
2019-01-24T02:58:21.390Z,971.25
2019-01-24T02:59:21.327Z,971.24
2019-01-24T03:00:21.262Z,971.24
2019-01-24T03:01:21.198Z,971.09
2019-01-24T03:02:21.137Z,971.22
2019-01-24T03:03:21.070Z,971.22
2019-01-24T03:04:21.007Z,971.18
2019-01-24T03:05:20.942Z,971.13
2019-01-24T03:06:20.879Z,971.21
2019-01-24T03:07:20.814Z,971.23
2019-01-24T03:08:20.751Z,971.18
2019-01-24T03:09:20.687Z,971.21
2019-01-24T03:10:20.624Z,971.24
2019-01-24T03:11:20.563Z,971.23
2019-01-24T03:12:20.496Z,971.22
2019-01-24T03:13:20.431Z,971.22
2019-01-24T03:14:20.367Z,971.22
2019-01-24T03:15:20.308Z,971.21
2019-01-24T03:16:20.241Z,971.23
2019-01-24T03:17:20.174Z,971.22
2019-01-24T03:18:20.111Z,971.26
2019-01-24T03:19:20.046Z,971.25
2019-01-24T03:20:20.005Z,971.23
2019-01-24T03:21:19.919Z,971.24
2019-01-24T03:22:19.854Z,971.30
2019-01-24T03:23:19.791Z,971.29
2019-01-24T03:24:19.725Z,971.31
2019-01-24T03:25:19.664Z,971.31
2019-01-24T03:26:19.600Z,971.36
2019-01-24T03:27:19.540Z,971.34
2019-01-24T03:28:19.471Z,971.33
2019-01-24T03:29:19.406Z,971.30
2019-01-24T03:30:19.346Z,971.30
2019-01-24T03:31:19.279Z,971.32
2019-01-24T03:32:19.215Z,971.33
2019-01-24T03:33:19.158Z,971.35
2019-01-24T03:34:19.087Z,971.37
2019-01-24T03:35:19.021Z,971.40
2019-01-24T03:36:18.959Z,971.43
2019-01-24T03:37:18.896Z,971.41
2019-01-24T03:38:18.831Z,971.44
2019-01-24T03:39:18.767Z,971.45
2019-01-24T03:40:18.711Z,971.47
2019-01-24T03:41:18.639Z,971.47
2019-01-24T03:42:18.575Z,971.48
2019-01-24T03:43:18.512Z,971.46
2019-01-24T03:44:18.448Z,971.49
2019-01-24T03:45:18.395Z,971.49
2019-01-24T03:46:18.320Z,971.53
2019-01-24T03:47:18.282Z,971.46
2019-01-24T03:48:18.196Z,971.50
2019-01-24T03:49:18.128Z,971.45
2019-01-24T03:50:18.179Z,971.51
2019-01-24T03:51:17.998Z,971.54
2019-01-24T03:52:17.934Z,971.55
2019-01-24T03:53:17.871Z,971.56
2019-01-24T03:54:17.811Z,971.56
2019-01-24T03:55:17.742Z,971.55
2019-01-24T03:56:17.677Z,971.57
2019-01-24T03:57:17.618Z,971.56
2019-01-24T03:58:17.551Z,971.60
2019-01-24T03:59:17.488Z,971.57
2019-01-24T04:00:17.423Z,971.60
2019-01-24T04:01:17.358Z,971.60
2019-01-24T04:02:17.295Z,971.60
2019-01-24T04:03:17.266Z,971.63
2019-01-24T04:04:17.168Z,971.63
2019-01-24T04:05:17.104Z,971.65
2019-01-24T04:06:17.040Z,971.64
2019-01-24T04:07:16.975Z,971.61
2019-01-24T04:08:16.911Z,971.66
2019-01-24T04:09:16.847Z,971.64
2019-01-24T04:10:16.783Z,971.65
2019-01-24T04:11:16.719Z,971.66
2019-01-24T04:12:16.656Z,971.71
2019-01-24T04:13:16.602Z,971.64
2019-01-24T04:14:16.527Z,971.65
2019-01-24T04:15:16.462Z,971.70
2019-01-24T04:16:16.398Z,971.72
2019-01-24T04:17:16.337Z,971.74
2019-01-24T04:18:16.272Z,971.74
2019-01-24T04:19:16.217Z,971.70
2019-01-24T04:20:16.143Z,971.72
2019-01-24T04:21:16.083Z,971.76
2019-01-24T04:22:16.016Z,971.73
2019-01-24T04:23:15.949Z,971.72
2019-01-24T04:24:15.886Z,971.76
2019-01-24T04:25:15.823Z,971.78
2019-01-24T04:26:15.758Z,971.80
2019-01-24T04:27:15.694Z,971.79
2019-01-24T04:28:15.630Z,971.76
2019-01-24T04:29:15.568Z,971.77
2019-01-24T04:30:15.504Z,971.83
2019-01-24T04:31:15.439Z,971.80
2019-01-24T04:32:15.373Z,971.82
2019-01-24T04:33:15.310Z,971.76
2019-01-24T04:34:15.247Z,971.81
2019-01-24T04:35:19.724Z,971.81
2019-01-24T04:36:15.118Z,971.82
2019-01-24T04:37:15.055Z,971.80
2019-01-24T04:38:14.990Z,971.78
2019-01-24T04:39:14.925Z,971.82
2019-01-24T04:40:14.862Z,971.84
2019-01-24T04:41:14.797Z,971.86
2019-01-24T04:42:14.735Z,971.84
2019-01-24T04:43:14.671Z,971.92
2019-01-24T04:44:14.605Z,971.91
2019-01-24T04:45:14.543Z,971.91
2019-01-24T04:46:14.479Z,971.88
2019-01-24T04:47:14.413Z,971.89
2019-01-24T04:48:14.352Z,971.86
2019-01-24T04:49:14.285Z,971.93
2019-01-24T04:50:14.232Z,971.93
2019-01-24T04:51:14.161Z,971.95
2019-01-24T04:52:14.094Z,971.94
2019-01-24T04:53:14.031Z,971.99
2019-01-24T04:54:13.966Z,972.00
2019-01-24T04:55:13.902Z,972.07
2019-01-24T04:56:13.837Z,972.04
2019-01-24T04:57:13.774Z,972.09
2019-01-24T04:58:13.710Z,972.13
2019-01-24T04:59:13.645Z,972.14
2019-01-24T05:00:13.584Z,972.16
2019-01-24T05:01:13.518Z,972.16
2019-01-24T05:02:13.454Z,972.21
2019-01-24T05:03:13.389Z,972.20
2019-01-24T05:04:13.325Z,972.23
2019-01-24T05:05:13.264Z,972.23
2019-01-24T05:06:13.203Z,972.22
2019-01-24T05:07:13.135Z,972.23
2019-01-24T05:08:13.068Z,972.28
2019-01-24T05:09:13.005Z,972.27
2019-01-24T05:10:12.944Z,972.23
2019-01-24T05:11:12.877Z,972.26
2019-01-24T05:12:12.817Z,972.27
2019-01-24T05:13:12.748Z,972.30
2019-01-24T05:14:12.683Z,972.28
2019-01-24T05:15:12.620Z,972.29
2019-01-24T05:16:12.557Z,972.28
2019-01-24T05:17:12.493Z,972.34
2019-01-24T05:18:12.429Z,972.29
2019-01-24T05:19:12.365Z,972.36
2019-01-24T05:20:12.379Z,972.33
2019-01-24T05:21:12.239Z,972.34
2019-01-24T05:22:12.172Z,972.39
2019-01-24T05:23:12.107Z,972.41
2019-01-24T05:24:12.044Z,972.38
2019-01-24T05:25:11.982Z,972.38
2019-01-24T05:26:11.916Z,972.37
2019-01-24T05:27:11.851Z,972.40
2019-01-24T05:28:11.787Z,972.37
2019-01-24T05:29:11.723Z,972.37
2019-01-24T05:30:11.660Z,972.36
2019-01-24T05:31:11.602Z,972.41
2019-01-24T05:32:11.531Z,972.40
2019-01-24T05:33:11.467Z,972.37
2019-01-24T05:34:11.404Z,972.39
2019-01-24T05:35:11.338Z,972.40
2019-01-24T05:36:11.280Z,972.42
2019-01-24T05:37:11.212Z,972.43
2019-01-24T05:38:11.176Z,972.42
2019-01-24T05:39:11.082Z,972.50
2019-01-24T05:40:11.018Z,972.52
2019-01-24T05:41:10.955Z,972.56
2019-01-24T05:42:10.899Z,972.55
2019-01-24T05:43:10.826Z,972.51
2019-01-24T05:44:10.773Z,972.64
2019-01-24T05:45:10.698Z,972.60
2019-01-24T05:46:10.634Z,972.58
2019-01-24T05:47:10.575Z,972.60
2019-01-24T05:48:10.505Z,972.61
2019-01-24T05:49:10.445Z,972.67
2019-01-24T05:50:10.382Z,972.65
2019-01-24T05:51:10.314Z,972.67
2019-01-24T05:52:10.249Z,972.73
2019-01-24T05:53:10.257Z,972.76
2019-01-24T05:54:10.125Z,972.83
2019-01-24T05:55:10.059Z,972.79
2019-01-24T05:56:09.993Z,972.85
2019-01-24T05:57:09.929Z,972.83
2019-01-24T05:58:09.866Z,972.92
2019-01-24T05:59:09.801Z,972.89
2019-01-24T06:00:09.738Z,972.86
2019-01-24T06:01:09.674Z,972.91
2019-01-24T06:02:09.608Z,972.97
2019-01-24T06:03:09.543Z,972.99
2019-01-24T06:04:09.481Z,973.00
2019-01-24T06:05:09.418Z,973.00
2019-01-24T06:06:09.357Z,973.03
2019-01-24T06:07:09.292Z,973.04
2019-01-24T06:08:09.225Z,973.04
2019-01-24T06:09:09.160Z,973.02
2019-01-24T06:10:09.095Z,973.04
2019-01-24T06:11:09.036Z,973.07
2019-01-24T06:12:08.968Z,973.09
2019-01-24T06:13:08.905Z,973.06
2019-01-24T06:14:08.839Z,973.09
2019-01-24T06:15:08.778Z,973.10
2019-01-24T06:16:08.711Z,973.09
2019-01-24T06:17:08.647Z,973.12
2019-01-24T06:18:08.587Z,973.12
2019-01-24T06:19:08.518Z,973.12
2019-01-24T06:20:08.455Z,973.16
2019-01-24T06:21:08.391Z,973.14
2019-01-24T06:22:08.326Z,973.19
2019-01-24T06:23:08.262Z,973.19
2019-01-24T06:24:08.197Z,973.16
2019-01-24T06:25:08.139Z,973.19
2019-01-24T06:26:08.070Z,973.18
2019-01-24T06:27:08.005Z,973.23
2019-01-24T06:28:07.941Z,973.17
2019-01-24T06:29:07.887Z,973.13
2019-01-24T06:30:07.815Z,973.17
2019-01-24T06:31:07.748Z,973.16
2019-01-24T06:32:07.685Z,973.19
2019-01-24T06:33:07.620Z,973.19
2019-01-24T06:34:07.556Z,973.17
2019-01-24T06:35:07.493Z,973.24
2019-01-24T06:36:07.427Z,973.20
2019-01-24T06:37:07.365Z,973.19
2019-01-24T06:38:07.301Z,973.26
2019-01-24T06:39:07.234Z,973.26
2019-01-24T06:40:07.172Z,973.29
2019-01-24T06:41:07.112Z,973.25
2019-01-24T06:42:07.045Z,973.25
2019-01-24T06:43:06.990Z,973.25
2019-01-24T06:44:06.938Z,973.20
2019-01-24T06:45:06.852Z,973.24
2019-01-24T06:46:06.788Z,973.25
2019-01-24T06:47:06.723Z,973.29
2019-01-24T06:48:06.661Z,973.31
2019-01-24T06:49:06.597Z,973.29
2019-01-24T06:50:06.530Z,973.32
2019-01-24T06:51:06.466Z,973.33
2019-01-24T06:52:06.404Z,973.29
2019-01-24T06:53:06.338Z,973.38
2019-01-24T06:54:06.277Z,973.38
2019-01-24T06:55:06.212Z,973.40
2019-01-24T06:56:06.151Z,973.39
2019-01-24T06:57:06.086Z,973.45
2019-01-24T06:58:06.017Z,973.41
2019-01-24T06:59:05.956Z,973.37
2019-01-24T07:00:05.893Z,973.39
2019-01-24T07:01:05.824Z,973.40
2019-01-24T07:02:05.760Z,973.38
2019-01-24T07:03:05.696Z,973.45
2019-01-24T07:04:05.631Z,973.41
2019-01-24T07:05:05.569Z,973.45
2019-01-24T07:06:05.503Z,973.47
2019-01-24T07:07:05.439Z,973.49
2019-01-24T07:08:05.377Z,973.52
2019-01-24T07:09:05.311Z,973.56
2019-01-24T07:10:05.980Z,973.56
2019-01-24T07:11:05.183Z,973.56
2019-01-24T07:12:05.121Z,973.52
2019-01-24T07:13:05.053Z,973.55
2019-01-24T07:14:04.991Z,973.60
2019-01-24T07:15:04.925Z,973.60
2019-01-24T07:16:04.865Z,973.59
2019-01-24T07:17:04.801Z,973.59
2019-01-24T07:18:04.735Z,973.64
2019-01-24T07:19:04.669Z,973.65
2019-01-24T07:20:04.606Z,973.69
2019-01-24T07:21:04.542Z,973.71
2019-01-24T07:22:04.476Z,973.65
2019-01-24T07:23:04.411Z,973.72
2019-01-24T07:24:04.348Z,973.71
2019-01-24T07:25:04.286Z,973.71
2019-01-24T07:26:04.220Z,973.75
2019-01-24T07:27:04.155Z,973.77
2019-01-24T07:28:04.091Z,973.78
2019-01-24T07:29:04.030Z,973.78
2019-01-24T07:30:03.963Z,973.82
2019-01-24T07:31:03.899Z,973.78
2019-01-24T07:32:03.834Z,973.81
2019-01-24T07:33:03.770Z,973.84
2019-01-24T07:34:03.708Z,973.87
2019-01-24T07:35:03.647Z,973.91
2019-01-24T07:36:03.577Z,973.93
2019-01-24T07:37:03.514Z,973.89
2019-01-24T07:38:03.450Z,973.94
2019-01-24T07:39:03.384Z,973.93
2019-01-24T07:40:03.321Z,973.99
2019-01-24T07:41:03.263Z,973.96
2019-01-24T07:42:03.203Z,973.97
2019-01-24T07:43:03.129Z,974.00
2019-01-24T07:44:03.065Z,973.89
2019-01-24T07:45:03.006Z,973.99
2019-01-24T07:46:02.937Z,974.04
2019-01-24T07:47:02.871Z,974.04
2019-01-24T07:48:03.134Z,974.08
2019-01-24T07:49:02.744Z,974.08
2019-01-24T07:50:02.680Z,974.09
2019-01-24T07:51:02.615Z,974.07
2019-01-24T07:52:03.477Z,974.14
2019-01-24T07:53:02.488Z,974.17
2019-01-24T07:54:02.422Z,974.12
2019-01-24T07:55:02.357Z,974.17
2019-01-24T07:56:02.293Z,974.15
2019-01-24T07:57:02.232Z,974.20
2019-01-24T07:58:02.166Z,974.18
2019-01-24T07:59:02.102Z,974.18
2019-01-24T08:00:02.038Z,974.20
2019-01-24T08:01:01.973Z,974.21
2019-01-24T08:02:01.910Z,974.24
2019-01-24T08:03:01.845Z,974.25
2019-01-24T08:04:01.779Z,974.27
2019-01-24T08:05:01.719Z,974.27
2019-01-24T08:06:01.651Z,974.26
2019-01-24T08:07:01.588Z,974.26
2019-01-24T08:08:01.523Z,974.30
2019-01-24T08:09:01.461Z,974.31
2019-01-24T08:10:01.396Z,974.37
2019-01-24T08:11:01.330Z,974.38
2019-01-24T08:12:01.266Z,974.40
2019-01-24T08:13:01.201Z,974.37
2019-01-24T08:14:01.138Z,974.40
2019-01-24T08:15:01.121Z,974.46
2019-01-24T08:16:01.013Z,974.46
2019-01-24T08:17:00.945Z,974.52
2019-01-24T08:18:00.882Z,974.53
2019-01-24T08:19:00.816Z,974.53
2019-01-24T08:20:00.751Z,974.55
2019-01-24T08:21:00.689Z,974.52
2019-01-24T08:22:00.629Z,974.52
2019-01-24T08:23:00.564Z,974.55
2019-01-24T08:24:00.495Z,974.56
2019-01-24T08:25:00.431Z,974.53
2019-01-24T08:26:00.369Z,974.52
2019-01-24T08:27:00.306Z,974.51
2019-01-24T08:28:00.239Z,974.53
2019-01-24T08:29:00.181Z,974.51
2019-01-24T08:30:00.234Z,974.50
2019-01-24T08:31:00.046Z,974.51
2019-01-24T08:31:59.981Z,974.58
2019-01-24T08:32:59.917Z,974.59
2019-01-24T08:33:59.853Z,974.58
2019-01-24T08:34:59.790Z,974.61
2019-01-24T08:35:59.726Z,974.61
2019-01-24T08:36:59.660Z,974.61
2019-01-24T08:37:59.601Z,974.61
2019-01-24T08:38:59.532Z,974.62
2019-01-24T08:39:59.467Z,974.62
2019-01-24T08:40:59.403Z,974.58
2019-01-24T08:41:59.339Z,974.63
2019-01-24T08:42:59.276Z,974.64
2019-01-24T08:43:59.210Z,974.64
2019-01-24T08:44:59.147Z,974.55
2019-01-24T08:45:59.082Z,974.60
2019-01-24T08:46:59.018Z,974.61
2019-01-24T08:47:58.954Z,974.59
2019-01-24T08:48:58.891Z,974.58
2019-01-24T08:49:58.834Z,974.60
2019-01-24T08:50:58.761Z,974.58
2019-01-24T08:51:58.698Z,974.54
2019-01-24T08:52:58.633Z,974.57
2019-01-24T08:53:58.570Z,974.59
2019-01-24T08:54:58.505Z,974.60
2019-01-24T08:55:58.441Z,974.58
2019-01-24T08:56:58.379Z,974.60
2019-01-24T08:57:58.313Z,974.62
2019-01-24T08:58:58.247Z,974.63
2019-01-24T08:59:58.184Z,974.63
2019-01-24T09:00:58.119Z,974.65
2019-01-24T09:01:58.060Z,974.67
2019-01-24T09:02:57.991Z,974.65
2019-01-24T09:03:57.926Z,974.66
2019-01-24T09:04:57.864Z,974.70
2019-01-24T09:05:57.798Z,974.70
2019-01-24T09:06:57.733Z,974.66
2019-01-24T09:07:57.670Z,974.68
2019-01-24T09:08:57.606Z,974.67
2019-01-24T09:09:57.542Z,974.68
2019-01-24T09:10:57.476Z,974.68
2019-01-24T09:11:57.414Z,974.66
2019-01-24T09:12:57.349Z,974.68
2019-01-24T09:13:57.286Z,974.69
2019-01-24T09:14:57.219Z,974.70
2019-01-24T09:15:57.155Z,974.67
2019-01-24T09:16:57.091Z,974.66
2019-01-24T09:17:57.027Z,974.61
2019-01-24T09:18:56.965Z,974.67
2019-01-24T09:19:56.899Z,974.70
2019-01-24T09:20:56.933Z,974.72
2019-01-24T09:21:56.771Z,974.72
2019-01-24T09:22:56.706Z,974.72
2019-01-24T09:23:56.646Z,974.76
2019-01-24T09:24:56.577Z,974.75
2019-01-24T09:25:56.514Z,974.79
2019-01-24T09:26:56.459Z,974.81
2019-01-24T09:27:56.385Z,974.77
2019-01-24T09:28:56.325Z,974.85
2019-01-24T09:29:56.256Z,974.85
2019-01-24T09:30:56.190Z,974.89
2019-01-24T09:31:56.127Z,974.93
2019-01-24T09:32:56.063Z,974.91
2019-01-24T09:33:55.998Z,974.89
2019-01-24T09:34:55.937Z,974.98
2019-01-24T09:35:55.871Z,974.99
2019-01-24T09:36:55.807Z,975.00
2019-01-24T09:37:55.744Z,975.00
2019-01-24T09:38:55.678Z,975.05
2019-01-24T09:39:55.615Z,975.02
2019-01-24T09:40:55.551Z,975.06
2019-01-24T09:41:55.487Z,975.06
2019-01-24T09:42:55.420Z,975.05
2019-01-24T09:43:55.358Z,975.03
2019-01-24T09:44:55.297Z,975.07
2019-01-24T09:45:55.230Z,975.01
2019-01-24T09:46:55.162Z,975.07
2019-01-24T09:47:55.103Z,975.09
2019-01-24T09:48:55.040Z,975.09
2019-01-24T09:49:54.972Z,975.11
2019-01-24T09:50:54.910Z,975.14
2019-01-24T09:51:54.842Z,975.15
2019-01-24T09:52:54.778Z,975.15
2019-01-24T09:53:54.714Z,975.22
2019-01-24T09:54:54.648Z,975.20
2019-01-24T09:55:54.585Z,975.24
2019-01-24T09:56:54.523Z,975.20
2019-01-24T09:57:54.460Z,975.25
2019-01-24T09:58:54.395Z,975.20
2019-01-24T09:59:54.332Z,975.23
2019-01-24T10:00:54.264Z,975.20
2019-01-24T10:01:54.202Z,975.23
2019-01-24T10:02:54.136Z,975.19
2019-01-24T10:03:54.072Z,975.27
2019-01-24T10:04:54.007Z,975.28
2019-01-24T10:05:53.943Z,975.33
2019-01-24T10:06:53.878Z,975.33
2019-01-24T10:07:53.814Z,975.36
2019-01-24T10:08:53.751Z,975.37
2019-01-24T10:09:53.686Z,975.39
2019-01-24T10:10:53.622Z,975.36
2019-01-24T10:11:53.560Z,975.36
2019-01-24T10:12:53.493Z,975.36
2019-01-24T10:13:53.428Z,975.33
2019-01-24T10:14:53.364Z,975.44
2019-01-24T10:15:53.301Z,975.38
2019-01-24T10:16:53.235Z,975.42
2019-01-24T10:17:53.172Z,975.42
2019-01-24T10:18:53.108Z,975.46
2019-01-24T10:19:53.043Z,975.46
2019-01-24T10:20:52.979Z,975.45
2019-01-24T10:21:52.955Z,975.43
2019-01-24T10:22:52.851Z,975.43
2019-01-24T10:23:52.785Z,975.43
2019-01-24T10:24:52.722Z,975.46
2019-01-24T10:25:52.658Z,975.43
2019-01-24T10:26:52.593Z,975.45
2019-01-24T10:27:52.531Z,975.46
2019-01-24T10:28:52.465Z,975.47
2019-01-24T10:29:52.403Z,975.48
2019-01-24T10:30:52.336Z,975.52
2019-01-24T10:31:52.272Z,975.53
2019-01-24T10:32:52.208Z,975.55
2019-01-24T10:33:52.188Z,975.56
2019-01-24T10:34:52.080Z,975.60
2019-01-24T10:35:52.016Z,975.61
2019-01-24T10:36:51.954Z,975.60
2019-01-24T10:37:51.895Z,975.61
2019-01-24T10:38:51.822Z,975.57
2019-01-24T10:39:51.758Z,975.57
2019-01-24T10:40:51.694Z,975.56
2019-01-24T10:41:51.630Z,975.57
2019-01-24T10:42:51.576Z,975.58
2019-01-24T10:43:51.501Z,975.56
2019-01-24T10:44:51.444Z,975.58
2019-01-24T10:45:51.388Z,975.58
2019-01-24T10:46:52.583Z,975.61
2019-01-24T10:47:51.243Z,975.58
2019-01-24T10:48:51.181Z,975.59
2019-01-24T10:49:51.133Z,975.54
2019-01-24T10:50:51.050Z,975.57
2019-01-24T10:51:50.986Z,975.59
2019-01-24T10:52:50.928Z,975.58
2019-01-24T10:53:50.859Z,975.61
2019-01-24T10:54:50.794Z,975.58
2019-01-24T10:55:50.729Z,975.61
2019-01-24T10:56:50.672Z,975.60
2019-01-24T10:57:50.601Z,975.63
2019-01-24T10:58:50.537Z,975.63
2019-01-24T10:59:50.474Z,975.64
2019-01-24T11:00:50.411Z,975.68
2019-01-24T11:01:50.345Z,975.63
2019-01-24T11:02:50.280Z,975.71
2019-01-24T11:03:50.215Z,975.70
2019-01-24T11:04:50.152Z,975.71
2019-01-24T11:05:50.091Z,975.71
2019-01-24T11:06:50.238Z,975.73
2019-01-24T11:07:49.958Z,975.70
2019-01-24T11:08:49.894Z,975.72
2019-01-24T11:09:49.831Z,975.76
2019-01-24T11:10:49.767Z,975.76
2019-01-24T11:11:49.703Z,975.69
2019-01-24T11:12:49.639Z,975.71
2019-01-24T11:13:49.585Z,975.71
2019-01-24T11:14:49.510Z,975.68
2019-01-24T11:15:49.444Z,975.71
2019-01-24T11:16:49.383Z,975.70
2019-01-24T11:17:49.318Z,975.71
2019-01-24T11:18:49.254Z,975.70
2019-01-24T11:19:49.187Z,975.72
2019-01-24T11:20:49.124Z,975.70
2019-01-24T11:21:49.064Z,975.67
2019-01-24T11:22:49.004Z,975.70
2019-01-24T11:23:48.930Z,975.69
2019-01-24T11:24:48.873Z,975.68
2019-01-24T11:25:48.803Z,975.72
2019-01-24T11:26:48.739Z,975.73
2019-01-24T11:27:48.673Z,975.68
2019-01-24T11:28:48.610Z,975.73
2019-01-24T11:29:48.545Z,975.77
2019-01-24T11:30:48.481Z,975.74
2019-01-24T11:31:48.420Z,975.76
2019-01-24T11:32:48.354Z,975.77
2019-01-24T11:33:48.289Z,975.76
2019-01-24T11:34:48.223Z,975.74
2019-01-24T11:35:48.162Z,975.73
2019-01-24T11:36:48.095Z,975.73
2019-01-24T11:37:48.031Z,975.71
2019-01-24T11:38:47.969Z,975.67
2019-01-24T11:39:47.904Z,975.70
2019-01-24T11:40:47.843Z,975.68
2019-01-24T11:41:47.775Z,975.68
2019-01-24T11:42:47.711Z,975.67
2019-01-24T11:43:47.646Z,975.66
2019-01-24T11:44:47.582Z,975.66
2019-01-24T11:45:47.523Z,975.67
2019-01-24T11:46:47.453Z,975.68
2019-01-24T11:47:47.388Z,975.65
2019-01-24T11:48:47.326Z,975.65
2019-01-24T11:49:47.270Z,975.62
2019-01-24T11:50:47.195Z,975.70
2019-01-24T11:51:47.132Z,975.67
2019-01-24T11:52:47.068Z,975.65
2019-01-24T11:53:52.926Z,975.71
2019-01-24T11:54:46.939Z,975.74
2019-01-24T11:55:46.875Z,975.77
2019-01-24T11:56:46.811Z,975.78
2019-01-24T11:57:46.746Z,975.76
2019-01-24T11:58:46.682Z,975.76
2019-01-24T11:59:46.617Z,975.79
2019-01-24T12:00:46.555Z,975.77
2019-01-24T12:01:46.492Z,975.72
2019-01-24T12:02:46.516Z,975.76
2019-01-24T12:03:46.362Z,975.74
2019-01-24T12:04:46.297Z,975.69
2019-01-24T12:05:46.232Z,975.70
2019-01-24T12:06:46.168Z,975.68
2019-01-24T12:07:46.105Z,975.71
2019-01-24T12:08:46.041Z,975.74
2019-01-24T12:09:45.976Z,975.70
2019-01-24T12:10:45.912Z,975.73
2019-01-24T12:11:45.847Z,975.79
2019-01-24T12:12:45.784Z,975.75
2019-01-24T12:13:45.723Z,975.73
2019-01-24T12:14:45.654Z,975.75
2019-01-24T12:15:45.590Z,975.77
2019-01-24T12:16:45.525Z,975.73
2019-01-24T12:17:45.462Z,975.62
2019-01-24T12:18:45.397Z,975.68
2019-01-24T12:19:45.334Z,975.68
2019-01-24T12:20:45.269Z,975.60
2019-01-24T12:21:45.206Z,975.66
2019-01-24T12:22:45.140Z,975.67
2019-01-24T12:23:45.076Z,975.60
2019-01-24T12:24:45.012Z,975.61
2019-01-24T12:25:44.950Z,975.63
2019-01-24T12:26:44.885Z,975.55
2019-01-24T12:27:44.823Z,975.62